sensor_id;sensor_type;location;lat;lon;timestamp;pressure;altitude;pressure_sealevel;temperature;humidity
50652;BME280;66928;52.086;5.240;2023-06-22T00:00:03;101772.0;;;20.76;72.16
50652;BME280;66928;52.086;5.240;2023-06-22T00:01:38;101772.0;;;20.96;71.38
50652;BME280;66928;52.086;5.240;2023-06-22T00:03:15;101773.0;;;20.84;71.97
50652;BME280;66928;52.086;5.240;2023-06-22T00:06:27;101773.0;;;20.73;72.34
50652;BME280;66928;52.086;5.240;2023-06-22T00:08:04;101780.0;;;20.76;72.36
50652;BME280;66928;52.086;5.240;2023-06-22T00:09:40;101780.0;;;20.7;72.44
50652;BME280;66928;52.086;5.240;2023-06-22T00:11:16;101780.0;;;20.57;73.36
50652;BME280;66928;52.086;5.240;2023-06-22T00:14:29;101776.0;;;20.48;73.8
50652;BME280;66928;52.086;5.240;2023-06-22T00:16:05;101780.0;;;20.6;73.27
50652;BME280;66928;52.086;5.240;2023-06-22T00:17:41;101780.0;;;20.73;72.66
50652;BME280;66928;52.086;5.240;2023-06-22T00:20:54;101774.0;;;20.58;73.25
50652;BME280;66928;52.086;5.240;2023-06-22T00:22:30;101769.0;;;20.72;72.7
50652;BME280;66928;52.086;5.240;2023-06-22T00:24:07;101765.0;;;20.67;72.94
50652;BME280;66928;52.086;5.240;2023-06-22T00:27:19;101764.0;;;20.51;73.33
50652;BME280;66928;52.086;5.240;2023-06-22T00:28:55;101764.0;;;20.46;73.72
50652;BME280;66928;52.086;5.240;2023-06-22T00:30:32;101763.0;;;20.31;74.61
50652;BME280;66928;52.086;5.240;2023-06-22T00:33:45;101761.0;;;20.23;75.22
50652;BME280;66928;52.086;5.240;2023-06-22T00:35:21;101761.0;;;20.16;75.63
50652;BME280;66928;52.086;5.240;2023-06-22T00:36:57;101761.0;;;20.36;74.86
50652;BME280;66928;52.086;5.240;2023-06-22T00:38:33;101758.0;;;20.3;75.16
50652;BME280;66928;52.086;5.240;2023-06-22T00:41:47;101757.0;;;20.46;74.41
50652;BME280;66928;52.086;5.240;2023-06-22T00:43:23;101756.0;;;20.49;74.11
50652;BME280;66928;52.086;5.240;2023-06-22T00:44:59;101758.0;;;20.46;74.23
50652;BME280;66928;52.086;5.240;2023-06-22T00:48:12;101758.0;;;20.36;74.55
50652;BME280;66928;52.086;5.240;2023-06-22T00:49:50;101756.0;;;20.25;75.08
50652;BME280;66928;52.086;5.240;2023-06-22T00:51:27;101755.0;;;20.2;75.3
50652;BME280;66928;52.086;5.240;2023-06-22T00:54:43;101745.0;;;20.18;75.34
50652;BME280;66928;52.086;5.240;2023-06-22T00:56:20;101753.0;;;19.91;76.75
50652;BME280;66928;52.086;5.240;2023-06-22T00:57:56;101748.0;;;20.18;75.3
50652;BME280;66928;52.086;5.240;2023-06-22T00:59:33;101746.0;;;20.18;75.38
50652;BME280;66928;52.086;5.240;2023-06-22T01:02:45;101743.0;;;20.41;74.41
50652;BME280;66928;52.086;5.240;2023-06-22T01:04:34;101746.0;;;20.41;74.64
50652;BME280;66928;52.086;5.240;2023-06-22T01:06:15;101749.0;;;20.16;75.59
50652;BME280;66928;52.086;5.240;2023-06-22T01:08:01;101744.0;;;20.18;75.47
50652;BME280;66928;52.086;5.240;2023-06-22T01:11:31;101743.0;;;20.07;76.16
50652;BME280;66928;52.086;5.240;2023-06-22T01:13:18;101741.0;;;20.06;76.25
50652;BME280;66928;52.086;5.240;2023-06-22T01:15:05;101743.0;;;20.14;75.77
50652;BME280;66928;52.086;5.240;2023-06-22T01:16:45;101743.0;;;19.96;76.56
50652;BME280;66928;52.086;5.240;2023-06-22T01:18:26;101746.0;;;20.06;76.45
50652;BME280;66928;52.086;5.240;2023-06-22T01:21:45;101750.0;;;19.93;77.11
50652;BME280;66928;52.086;5.240;2023-06-22T01:23:29;101753.0;;;19.81;77.67
50652;BME280;66928;52.086;5.240;2023-06-22T01:25:11;101753.0;;;19.71;78.05
50652;BME280;66928;52.086;5.240;2023-06-22T01:26:56;101751.0;;;19.55;78.81
50652;BME280;66928;52.086;5.240;2023-06-22T01:30:23;101740.0;;;19.87;77.49
50652;BME280;66928;52.086;5.240;2023-06-22T01:32:02;101738.0;;;20.02;76.74
50652;BME280;66928;52.086;5.240;2023-06-22T01:33:42;101744.0;;;20.04;76.47
50652;BME280;66928;52.086;5.240;2023-06-22T01:35:20;101748.0;;;19.78;77.74
50652;BME280;66928;52.086;5.240;2023-06-22T01:38:37;101746.0;;;19.75;77.48
50652;BME280;66928;52.086;5.240;2023-06-22T01:40:14;101744.0;;;19.7;77.74
50652;BME280;66928;52.086;5.240;2023-06-22T01:41:51;101742.0;;;19.62;78.62
50652;BME280;66928;52.086;5.240;2023-06-22T01:43:30;101740.0;;;19.95;77.06
50652;BME280;66928;52.086;5.240;2023-06-22T01:46:44;101736.0;;;20.04;76.48
50652;BME280;66928;52.086;5.240;2023-06-22T01:48:21;101735.0;;;19.95;76.8
50652;BME280;66928;52.086;5.240;2023-06-22T01:49:58;101739.0;;;19.66;78.0
50652;BME280;66928;52.086;5.240;2023-06-22T01:53:10;101742.0;;;19.61;78.22
50652;BME280;66928;52.086;5.240;2023-06-22T01:54:47;101737.0;;;19.61;78.22
50652;BME280;66928;52.086;5.240;2023-06-22T01:56:23;101736.0;;;19.59;78.47
50652;BME280;66928;52.086;5.240;2023-06-22T01:58:02;101739.0;;;19.53;78.62
50652;BME280;66928;52.086;5.240;2023-06-22T02:01:28;101745.0;;;19.45;78.97
50652;BME280;66928;52.086;5.240;2023-06-22T02:03:10;101748.0;;;19.31;79.78
50652;BME280;66928;52.086;5.240;2023-06-22T02:04:53;101747.0;;;19.16;80.47
50652;BME280;66928;52.086;5.240;2023-06-22T02:06:36;101745.0;;;19.09;81.25
50652;BME280;66928;52.086;5.240;2023-06-22T02:09:57;101745.0;;;19.05;81.42
50652;BME280;66928;52.086;5.240;2023-06-22T02:11:36;101734.0;;;19.16;80.73
50652;BME280;66928;52.086;5.240;2023-06-22T02:13:14;101733.0;;;19.18;80.64
50652;BME280;66928;52.086;5.240;2023-06-22T02:14:52;101731.0;;;19.25;80.53
50652;BME280;66928;52.086;5.240;2023-06-22T02:18:08;101731.0;;;19.16;80.69
50652;BME280;66928;52.086;5.240;2023-06-22T02:19:44;101730.0;;;19.27;80.34
50652;BME280;66928;52.086;5.240;2023-06-22T02:21:20;101728.0;;;19.22;80.22
50652;BME280;66928;52.086;5.240;2023-06-22T02:24:33;101728.0;;;19.38;79.62
50652;BME280;66928;52.086;5.240;2023-06-22T02:26:10;101722.0;;;19.34;79.58
50652;BME280;66928;52.086;5.240;2023-06-22T02:27:46;101730.0;;;19.27;80.16
50652;BME280;66928;52.086;5.240;2023-06-22T02:29:22;101728.0;;;19.16;80.75
50652;BME280;66928;52.086;5.240;2023-06-22T02:32:34;101727.0;;;19.18;80.62
50652;BME280;66928;52.086;5.240;2023-06-22T02:34:11;101728.0;;;19.34;79.94
50652;BME280;66928;52.086;5.240;2023-06-22T02:35:48;101722.0;;;19.34;79.8
50652;BME280;66928;52.086;5.240;2023-06-22T02:39:00;101725.0;;;19.3;79.61
50652;BME280;66928;52.086;5.240;2023-06-22T02:40:36;101727.0;;;19.3;79.61
50652;BME280;66928;52.086;5.240;2023-06-22T02:42:12;101727.0;;;19.09;80.62
50652;BME280;66928;52.086;5.240;2023-06-22T02:45:25;101726.0;;;19.38;79.41
50652;BME280;66928;52.086;5.240;2023-06-22T02:47:01;101727.0;;;19.48;78.74
50652;BME280;66928;52.086;5.240;2023-06-22T02:48:39;101723.0;;;19.28;79.25
50652;BME280;66928;52.086;5.240;2023-06-22T02:50:15;101722.0;;;19.52;78.37
50652;BME280;66928;52.086;5.240;2023-06-22T02:53:28;101726.0;;;19.39;78.72
50652;BME280;66928;52.086;5.240;2023-06-22T02:55:05;101720.0;;;19.63;77.55
50652;BME280;66928;52.086;5.240;2023-06-22T02:56:42;101720.0;;;19.61;77.41
50652;BME280;66928;52.086;5.240;2023-06-22T02:59:54;101718.0;;;19.47;77.83
50652;BME280;66928;52.086;5.240;2023-06-22T03:01:31;101725.0;;;19.37;78.05
50652;BME280;66928;52.086;5.240;2023-06-22T03:03:07;101721.0;;;19.29;78.38
50652;BME280;66928;52.086;5.240;2023-06-22T03:06:20;101723.0;;;19.25;78.83
50652;BME280;66928;52.086;5.240;2023-06-22T03:07:56;101719.0;;;19.22;78.75
50652;BME280;66928;52.086;5.240;2023-06-22T03:09:32;101723.0;;;19.18;79.03
50652;BME280;66928;52.086;5.240;2023-06-22T03:12:46;101723.0;;;19.0;79.75
50652;BME280;66928;52.086;5.240;2023-06-22T03:14:23;101719.0;;;19.05;79.66
50652;BME280;66928;52.086;5.240;2023-06-22T03:15:59;101723.0;;;19.2;78.84
50652;BME280;66928;52.086;5.240;2023-06-22T03:17:36;101723.0;;;19.11;78.97
50652;BME280;66928;52.086;5.240;2023-06-22T03:20:49;101726.0;;;18.79;80.58
50652;BME280;66928;52.086;5.240;2023-06-22T03:22:25;101725.0;;;19.04;80.0
50652;BME280;66928;52.086;5.240;2023-06-22T03:24:01;101728.0;;;19.02;79.88
50652;BME280;66928;52.086;5.240;2023-06-22T03:27:13;101719.0;;;19.06;79.74
50652;BME280;66928;52.086;5.240;2023-06-22T03:28:49;101707.0;;;18.86;80.77
50652;BME280;66928;52.086;5.240;2023-06-22T03:30:26;101711.0;;;18.75;80.7
50652;BME280;66928;52.086;5.240;2023-06-22T03:33:38;101712.0;;;18.71;81.13
50652;BME280;66928;52.086;5.240;2023-06-22T03:35:14;101702.0;;;18.7;81.11
50652;BME280;66928;52.086;5.240;2023-06-22T03:36:50;101696.0;;;18.7;80.91
50652;BME280;66928;52.086;5.240;2023-06-22T03:38:27;101700.0;;;18.59;81.33
50652;BME280;66928;52.086;5.240;2023-06-22T03:41:40;101706.0;;;18.5;82.04
50652;BME280;66928;52.086;5.240;2023-06-22T03:43:16;101706.0;;;18.37;82.6
50652;BME280;66928;52.086;5.240;2023-06-22T03:44:52;101705.0;;;18.32;82.91
50652;BME280;66928;52.086;5.240;2023-06-22T03:48:05;101702.0;;;18.3;83.27
50652;BME280;66928;52.086;5.240;2023-06-22T03:49:41;101702.0;;;18.11;84.28
50652;BME280;66928;52.086;5.240;2023-06-22T03:51:17;101701.0;;;18.21;83.65
50652;BME280;66928;52.086;5.240;2023-06-22T03:54:30;101697.0;;;18.25;83.82
50652;BME280;66928;52.086;5.240;2023-06-22T03:56:06;101699.0;;;18.07;84.55
50652;BME280;66928;52.086;5.240;2023-06-22T03:57:43;101692.0;;;18.21;84.22
50652;BME280;66928;52.086;5.240;2023-06-22T03:59:19;101695.0;;;18.22;84.27
50652;BME280;66928;52.086;5.240;2023-06-22T04:02:31;101692.0;;;18.22;84.33
50652;BME280;66928;52.086;5.240;2023-06-22T04:04:07;101690.0;;;18.25;84.24
50652;BME280;66928;52.086;5.240;2023-06-22T04:05:44;101691.0;;;18.28;84.11
50652;BME280;66928;52.086;5.240;2023-06-22T04:08:57;101694.0;;;18.32;84.06
50652;BME280;66928;52.086;5.240;2023-06-22T04:10:33;101691.0;;;18.41;83.55
50652;BME280;66928;52.086;5.240;2023-06-22T04:12:09;101697.0;;;18.5;83.36
50652;BME280;66928;52.086;5.240;2023-06-22T05:32:26;101684.0;;;21.12;73.27
50652;BME280;66928;52.086;5.240;2023-06-22T05:34:02;101687.0;;;21.11;73.45
50652;BME280;66928;52.086;5.240;2023-06-22T05:35:38;101689.0;;;21.07;73.83
50652;BME280;66928;52.086;5.240;2023-06-22T05:38:51;101690.0;;;20.96;74.45
50652;BME280;66928;52.086;5.240;2023-06-22T05:40:27;101690.0;;;21.13;73.94
50652;BME280;66928;52.086;5.240;2023-06-22T05:42:05;101697.0;;;20.86;74.97
50652;BME280;66928;52.086;5.240;2023-06-22T05:45:17;101693.0;;;20.84;75.22
50652;BME280;66928;52.086;5.240;2023-06-22T05:46:53;101695.0;;;20.92;75.08
50652;BME280;66928;52.086;5.240;2023-06-22T05:48:29;101702.0;;;20.65;76.27
50652;BME280;66928;52.086;5.240;2023-06-22T05:51:44;101701.0;;;20.69;76.59
50652;BME280;66928;52.086;5.240;2023-06-22T05:53:20;101700.0;;;20.75;76.63
50652;BME280;66928;52.086;5.240;2023-06-22T05:54:56;101702.0;;;20.68;77.22
50652;BME280;66928;52.086;5.240;2023-06-22T05:56:32;101699.0;;;20.62;77.66
50652;BME280;66928;52.086;5.240;2023-06-22T05:59:44;101705.0;;;20.68;77.33
50652;BME280;66928;52.086;5.240;2023-06-22T06:01:21;101705.0;;;20.63;77.8
50652;BME280;66928;52.086;5.240;2023-06-22T06:02:57;101701.0;;;20.54;78.36
50652;BME280;66928;52.086;5.240;2023-06-22T06:06:09;101700.0;;;20.6;78.41
50652;BME280;66928;52.086;5.240;2023-06-22T06:07:46;101697.0;;;20.57;78.5
50652;BME280;66928;52.086;5.240;2023-06-22T06:09:22;101693.0;;;20.7;78.27
50652;BME280;66928;52.086;5.240;2023-06-22T06:12:35;101689.0;;;20.76;78.23
50652;BME280;66928;52.086;5.240;2023-06-22T06:14:11;101687.0;;;20.78;78.28
50652;BME280;66928;52.086;5.240;2023-06-22T06:15:47;101687.0;;;20.89;77.99
50652;BME280;66928;52.086;5.240;2023-06-22T06:17:23;101684.0;;;20.86;78.23
50652;BME280;66928;52.086;5.240;2023-06-22T06:20:35;101685.0;;;20.8;78.64
50652;BME280;66928;52.086;5.240;2023-06-22T06:22:11;101684.0;;;20.95;78.3
50652;BME280;66928;52.086;5.240;2023-06-22T06:23:48;101682.0;;;21.08;77.98
50652;BME280;66928;52.086;5.240;2023-06-22T06:27:00;101680.0;;;21.14;77.78
50652;BME280;66928;52.086;5.240;2023-06-22T06:28:36;101680.0;;;21.1;77.61
50652;BME280;66928;52.086;5.240;2023-06-22T06:30:14;101677.0;;;21.17;77.55
50652;BME280;66928;52.086;5.240;2023-06-22T06:33:27;101680.0;;;21.22;77.47
50652;BME280;66928;52.086;5.240;2023-06-22T06:35:04;101680.0;;;21.28;77.42
50652;BME280;66928;52.086;5.240;2023-06-22T06:36:40;101670.0;;;21.39;77.0
50652;BME280;66928;52.086;5.240;2023-06-22T06:39:53;101672.0;;;21.48;76.7
50652;BME280;66928;52.086;5.240;2023-06-22T06:41:29;101668.0;;;21.44;76.7
50652;BME280;66928;52.086;5.240;2023-06-22T06:43:05;101665.0;;;21.58;76.27
50652;BME280;66928;52.086;5.240;2023-06-22T06:44:41;101665.0;;;21.67;75.86
50652;BME280;66928;52.086;5.240;2023-06-22T06:47:54;101658.0;;;21.69;75.42
50652;BME280;66928;52.086;5.240;2023-06-22T06:49:30;101656.0;;;21.6;76.13
50652;BME280;66928;52.086;5.240;2023-06-22T06:51:06;101655.0;;;21.66;75.94
50652;BME280;66928;52.086;5.240;2023-06-22T06:54:18;101653.0;;;21.94;75.34
50652;BME280;66928;52.086;5.240;2023-06-22T06:55:54;101661.0;;;22.02;74.36
50652;BME280;66928;52.086;5.240;2023-06-22T06:57:30;101656.0;;;22.07;74.16
50652;BME280;66928;52.086;5.240;2023-06-22T07:00:43;101650.0;;;22.23;73.31
50652;BME280;66928;52.086;5.240;2023-06-22T07:02:19;101652.0;;;22.29;73.12
50652;BME280;66928;52.086;5.240;2023-06-22T07:03:55;101646.0;;;22.26;73.12
50652;BME280;66928;52.086;5.240;2023-06-22T07:05:31;101646.0;;;22.37;72.94
50652;BME280;66928;52.086;5.240;2023-06-22T07:08:44;101648.0;;;22.38;73.23
50652;BME280;66928;52.086;5.240;2023-06-22T07:10:20;101652.0;;;22.5;72.86
50652;BME280;66928;52.086;5.240;2023-06-22T07:11:56;101644.0;;;22.66;72.08
50652;BME280;66928;52.086;5.240;2023-06-22T07:15:09;101648.0;;;22.8;71.38
50652;BME280;66928;52.086;5.240;2023-06-22T07:16:45;101647.0;;;22.86;69.78
50652;BME280;66928;52.086;5.240;2023-06-22T07:18:21;101656.0;;;22.87;67.88
50652;BME280;66928;52.086;5.240;2023-06-22T07:21:34;101650.0;;;22.81;67.1
50652;BME280;66928;52.086;5.240;2023-06-22T07:23:10;101651.0;;;22.82;67.06
50652;BME280;66928;52.086;5.240;2023-06-22T07:24:46;101651.0;;;22.93;66.3
50652;BME280;66928;52.086;5.240;2023-06-22T07:28:00;101652.0;;;23.07;66.62
50652;BME280;66928;52.086;5.240;2023-06-22T07:29:38;101653.0;;;23.03;66.03
50652;BME280;66928;52.086;5.240;2023-06-22T07:31:14;101651.0;;;23.16;66.25
50652;BME280;66928;52.086;5.240;2023-06-22T07:32:50;101652.0;;;23.25;66.13
50652;BME280;66928;52.086;5.240;2023-06-22T07:36:03;101645.0;;;23.08;65.41
50652;BME280;66928;52.086;5.240;2023-06-22T07:37:39;101647.0;;;22.99;65.94
50652;BME280;66928;52.086;5.240;2023-06-22T07:39:16;101643.0;;;23.01;66.47
50652;BME280;66928;52.086;5.240;2023-06-22T07:44:04;101640.0;;;23.04;66.77
50652;BME280;66928;52.086;5.240;2023-06-22T07:45:40;101633.0;;;23.15;66.42
50652;BME280;66928;52.086;5.240;2023-06-22T07:48:52;101630.0;;;23.38;65.88
50652;BME280;66928;52.086;5.240;2023-06-22T07:50:29;101626.0;;;23.37;64.55
50652;BME280;66928;52.086;5.240;2023-06-22T07:52:05;101631.0;;;23.4;64.81
50652;BME280;66928;52.086;5.240;2023-06-22T07:53:43;101631.0;;;23.45;64.55
50652;BME280;66928;52.086;5.240;2023-06-22T07:56:55;101627.0;;;23.61;63.35
50652;BME280;66928;52.086;5.240;2023-06-22T07:58:31;101622.0;;;23.64;64.02
50652;BME280;66928;52.086;5.240;2023-06-22T08:00:10;101619.0;;;23.75;63.91
50652;BME280;66928;52.086;5.240;2023-06-22T08:03:22;101617.0;;;23.75;63.33
50652;BME280;66928;52.086;5.240;2023-06-22T08:04:58;101617.0;;;23.62;62.46
50652;BME280;66928;52.086;5.240;2023-06-22T08:06:34;101609.0;;;23.64;61.83
50652;BME280;66928;52.086;5.240;2023-06-22T08:09:47;101615.0;;;23.81;61.46
50652;BME280;66928;52.086;5.240;2023-06-22T08:11:24;101608.0;;;23.75;60.31
50652;BME280;66928;52.086;5.240;2023-06-22T08:13:01;101607.0;;;23.67;60.81
50652;BME280;66928;52.086;5.240;2023-06-22T08:14:38;101595.0;;;23.8;60.63
50652;BME280;66928;52.086;5.240;2023-06-22T08:17:51;101593.0;;;23.95;60.12
50652;BME280;66928;52.086;5.240;2023-06-22T08:19:28;101588.0;;;23.97;60.33
50652;BME280;66928;52.086;5.240;2023-06-22T08:21:04;101590.0;;;24.16;59.92
50652;BME280;66928;52.086;5.240;2023-06-22T08:24:17;101581.0;;;24.16;58.53
50652;BME280;66928;52.086;5.240;2023-06-22T08:25:53;101582.0;;;24.11;57.12
50652;BME280;66928;52.086;5.240;2023-06-22T08:27:29;101581.0;;;24.08;57.4
50652;BME280;66928;52.086;5.240;2023-06-22T08:30:42;101575.0;;;24.12;56.72
50652;BME280;66928;52.086;5.240;2023-06-22T08:32:18;101580.0;;;24.21;56.68
50652;BME280;66928;52.086;5.240;2023-06-22T08:33:54;101572.0;;;24.24;57.76
50652;BME280;66928;52.086;5.240;2023-06-22T08:35:30;101565.0;;;24.31;57.01
50652;BME280;66928;52.086;5.240;2023-06-22T08:38:43;101569.0;;;24.52;56.16
50652;BME280;66928;52.086;5.240;2023-06-22T08:40:19;101572.0;;;24.55;55.59
50652;BME280;66928;52.086;5.240;2023-06-22T08:41:56;101561.0;;;24.65;55.68
50652;BME280;66928;52.086;5.240;2023-06-22T08:45:09;101557.0;;;24.73;55.57
50652;BME280;66928;52.086;5.240;2023-06-22T08:46:45;101555.0;;;24.79;56.21
50652;BME280;66928;52.086;5.240;2023-06-22T08:48:21;101557.0;;;24.98;55.18
50652;BME280;66928;52.086;5.240;2023-06-22T08:51:34;101562.0;;;24.89;53.28
50652;BME280;66928;52.086;5.240;2023-06-22T08:53:10;101563.0;;;24.99;53.18
50652;BME280;66928;52.086;5.240;2023-06-22T08:54:46;101558.0;;;24.88;52.9
50652;BME280;66928;52.086;5.240;2023-06-22T08:56:22;101553.0;;;24.99;51.87
50652;BME280;66928;52.086;5.240;2023-06-22T08:59:34;101555.0;;;25.01;52.81
50652;BME280;66928;52.086;5.240;2023-06-22T09:01:11;101553.0;;;24.89;52.51
50652;BME280;66928;52.086;5.240;2023-06-22T09:02:47;101553.0;;;25.07;52.47
50652;BME280;66928;52.086;5.240;2023-06-22T09:06:00;101552.0;;;25.04;52.55
50652;BME280;66928;52.086;5.240;2023-06-22T09:07:36;101552.0;;;25.19;52.01
50652;BME280;66928;52.086;5.240;2023-06-22T09:09:13;101552.0;;;25.16;51.34
50652;BME280;66928;52.086;5.240;2023-06-22T09:12:26;101553.0;;;25.08;49.76
50652;BME280;66928;52.086;5.240;2023-06-22T09:14:02;101555.0;;;24.94;49.3
50652;BME280;66928;52.086;5.240;2023-06-22T09:15:38;101553.0;;;25.08;50.0
50652;BME280;66928;52.086;5.240;2023-06-22T09:18:50;101555.0;;;25.06;49.97
50652;BME280;66928;52.086;5.240;2023-06-22T09:20:27;101552.0;;;25.11;49.63
50652;BME280;66928;52.086;5.240;2023-06-22T09:22:03;101550.0;;;25.24;50.18
50652;BME280;66928;52.086;5.240;2023-06-22T09:23:39;101555.0;;;25.46;50.23
50652;BME280;66928;52.086;5.240;2023-06-22T09:26:51;101552.0;;;25.53;49.83
50652;BME280;66928;52.086;5.240;2023-06-22T09:28:27;101551.0;;;25.66;49.65
50652;BME280;66928;52.086;5.240;2023-06-22T09:30:05;101555.0;;;25.7;48.74
50652;BME280;66928;52.086;5.240;2023-06-22T09:33:17;101553.0;;;25.79;48.66
50652;BME280;66928;52.086;5.240;2023-06-22T09:34:53;101551.0;;;25.71;48.34
50652;BME280;66928;52.086;5.240;2023-06-22T09:36:29;101555.0;;;25.7;47.48
50652;BME280;66928;52.086;5.240;2023-06-22T09:39:41;101555.0;;;25.58;47.12
50652;BME280;66928;52.086;5.240;2023-06-22T09:41:18;101555.0;;;25.82;47.36
50652;BME280;66928;52.086;5.240;2023-06-22T09:42:54;101552.0;;;25.66;48.0
50652;BME280;66928;52.086;5.240;2023-06-22T09:44:30;101547.0;;;25.83;47.63
50652;BME280;66928;52.086;5.240;2023-06-22T09:47:42;101547.0;;;25.85;46.09
50652;BME280;66928;52.086;5.240;2023-06-22T09:49:18;101550.0;;;25.82;45.41
50652;BME280;66928;52.086;5.240;2023-06-22T09:50:54;101542.0;;;25.84;45.46
50652;BME280;66928;52.086;5.240;2023-06-22T09:54:07;101539.0;;;25.81;45.77
50652;BME280;66928;52.086;5.240;2023-06-22T09:55:43;101543.0;;;25.81;46.06
50652;BME280;66928;52.086;5.240;2023-06-22T09:57:19;101538.0;;;25.95;45.96
50652;BME280;66928;52.086;5.240;2023-06-22T10:00:31;101537.0;;;25.81;46.54
50652;BME280;66928;52.086;5.240;2023-06-22T10:02:08;101537.0;;;25.78;46.66
50652;BME280;66928;52.086;5.240;2023-06-22T10:03:45;101531.0;;;25.68;46.45
50652;BME280;66928;52.086;5.240;2023-06-22T10:06:57;101533.0;;;25.59;46.76
50652;BME280;66928;52.086;5.240;2023-06-22T10:08:33;101537.0;;;25.62;46.84
50652;BME280;66928;52.086;5.240;2023-06-22T10:10:10;101535.0;;;25.68;47.44
50652;BME280;66928;52.086;5.240;2023-06-22T10:11:46;101531.0;;;25.84;47.17
50652;BME280;66928;52.086;5.240;2023-06-22T10:14:59;101537.0;;;25.77;47.39
50652;BME280;66928;52.086;5.240;2023-06-22T10:16:36;101536.0;;;25.97;46.74
50652;BME280;66928;52.086;5.240;2023-06-22T10:18:12;101534.0;;;25.98;46.97
50652;BME280;66928;52.086;5.240;2023-06-22T10:21:24;101537.0;;;25.93;47.31
50652;BME280;66928;52.086;5.240;2023-06-22T10:23:00;101533.0;;;25.86;48.08
50652;BME280;66928;52.086;5.240;2023-06-22T10:24:37;101535.0;;;25.78;48.24
50652;BME280;66928;52.086;5.240;2023-06-22T10:27:49;101537.0;;;25.68;48.36
50652;BME280;66928;52.086;5.240;2023-06-22T10:29:25;101530.0;;;25.53;49.44
50652;BME280;66928;52.086;5.240;2023-06-22T10:31:01;101533.0;;;25.6;51.12
50652;BME280;66928;52.086;5.240;2023-06-22T10:32:38;101538.0;;;25.51;52.34
50652;BME280;66928;52.086;5.240;2023-06-22T10:35:51;101538.0;;;25.42;53.79
50652;BME280;66928;52.086;5.240;2023-06-22T10:37:27;101535.0;;;25.38;54.63
50652;BME280;66928;52.086;5.240;2023-06-22T10:39:03;101537.0;;;25.24;55.24
50652;BME280;66928;52.086;5.240;2023-06-22T10:42:15;101539.0;;;25.14;55.8
50652;BME280;66928;52.086;5.240;2023-06-22T10:43:51;101543.0;;;25.14;56.3
50652;BME280;66928;52.086;5.240;2023-06-22T10:45:28;101540.0;;;25.07;56.85
50652;BME280;66928;52.086;5.240;2023-06-22T10:48:41;101536.0;;;25.13;57.18
50652;BME280;66928;52.086;5.240;2023-06-22T10:50:17;101544.0;;;25.21;56.86
50652;BME280;66928;52.086;5.240;2023-06-22T10:51:54;101537.0;;;25.11;57.15
50652;BME280;66928;52.086;5.240;2023-06-22T10:53:31;101540.0;;;25.09;57.59
50652;BME280;66928;52.086;5.240;2023-06-22T10:56:45;101541.0;;;25.21;57.45
50652;BME280;66928;52.086;5.240;2023-06-22T10:58:21;101537.0;;;25.04;58.25
50652;BME280;66928;52.086;5.240;2023-06-22T10:59:57;101541.0;;;25.16;58.2
50652;BME280;66928;52.086;5.240;2023-06-22T11:03:09;101542.0;;;25.28;58.23
50652;BME280;66928;52.086;5.240;2023-06-22T11:04:45;101542.0;;;25.27;58.65
50652;BME280;66928;52.086;5.240;2023-06-22T11:06:21;101544.0;;;25.38;58.44
50652;BME280;66928;52.086;5.240;2023-06-22T11:09:34;101539.0;;;25.12;59.3
50652;BME280;66928;52.086;5.240;2023-06-22T11:11:10;101543.0;;;25.16;59.33
50652;BME280;66928;52.086;5.240;2023-06-22T11:12:46;101540.0;;;25.02;59.87
50652;BME280;66928;52.086;5.240;2023-06-22T11:15:59;101543.0;;;25.01;60.24
50652;BME280;66928;52.086;5.240;2023-06-22T11:17:36;101536.0;;;24.9;60.82
50652;BME280;66928;52.086;5.240;2023-06-22T11:19:12;101535.0;;;24.96;60.77
50652;BME280;66928;52.086;5.240;2023-06-22T11:20:48;101542.0;;;24.85;60.93
50652;BME280;66928;52.086;5.240;2023-06-22T11:24:00;101532.0;;;24.85;61.08
50652;BME280;66928;52.086;5.240;2023-06-22T11:25:36;101533.0;;;24.84;61.55
50652;BME280;66928;52.086;5.240;2023-06-22T11:27:13;101533.0;;;24.91;61.11
50652;BME280;66928;52.086;5.240;2023-06-22T11:30:25;101535.0;;;24.97;60.66
50652;BME280;66928;52.086;5.240;2023-06-22T11:32:01;101542.0;;;24.8;60.07
50652;BME280;66928;52.086;5.240;2023-06-22T11:33:37;101525.0;;;24.89;59.47
50652;BME280;66928;52.086;5.240;2023-06-22T11:38:26;101530.0;;;24.81;57.17
50652;BME280;66928;52.086;5.240;2023-06-22T11:40:02;101522.0;;;24.95;57.0
50652;BME280;66928;52.086;5.240;2023-06-22T11:41:39;101512.0;;;24.87;55.99
50652;BME280;66928;52.086;5.240;2023-06-22T11:44:51;101512.0;;;24.91;55.99
50652;BME280;66928;52.086;5.240;2023-06-22T11:46:28;101512.0;;;24.94;55.45
50652;BME280;66928;52.086;5.240;2023-06-22T11:48:04;101501.0;;;24.95;55.59
50652;BME280;66928;52.086;5.240;2023-06-22T11:51:17;101494.0;;;24.91;55.78
50652;BME280;66928;52.086;5.240;2023-06-22T11:52:54;101505.0;;;24.91;55.51
50652;BME280;66928;52.086;5.240;2023-06-22T11:54:29;101502.0;;;24.95;55.25
50652;BME280;66928;52.086;5.240;2023-06-22T11:57:53;101505.0;;;24.89;54.87
50652;BME280;66928;52.086;5.240;2023-06-22T11:59:30;101491.0;;;24.87;55.08
50652;BME280;66928;52.086;5.240;2023-06-22T12:01:06;101497.0;;;24.99;54.87
50652;BME280;66928;52.086;5.240;2023-06-22T12:02:42;101499.0;;;25.0;54.57
50652;BME280;66928;52.086;5.240;2023-06-22T12:05:55;101490.0;;;25.0;54.85
50652;BME280;66928;52.086;5.240;2023-06-22T12:07:31;101490.0;;;24.97;55.27
50652;BME280;66928;52.086;5.240;2023-06-22T12:09:07;101488.0;;;24.99;55.37
50652;BME280;66928;52.086;5.240;2023-06-22T12:12:20;101492.0;;;25.0;55.74
50652;BME280;66928;52.086;5.240;2023-06-22T12:13:56;101485.0;;;25.02;56.04
50652;BME280;66928;52.086;5.240;2023-06-22T12:15:33;101488.0;;;25.16;56.03
50652;BME280;66928;52.086;5.240;2023-06-22T12:18:45;101483.0;;;25.17;56.22
50652;BME280;66928;52.086;5.240;2023-06-22T12:20:21;101480.0;;;25.3;55.54
50652;BME280;66928;52.086;5.240;2023-06-22T12:21:57;101480.0;;;25.24;55.63
50652;BME280;66928;52.086;5.240;2023-06-22T12:23:33;101477.0;;;25.24;56.07
50652;BME280;66928;52.086;5.240;2023-06-22T12:26:47;101481.0;;;25.22;56.19